createdAt,value
2023-09-08T00:09:10.153Z,21.52
2023-09-08T00:19:33.717Z,20.42
2023-09-08T00:29:57.850Z,18.06
2023-09-08T00:40:22.149Z,16.76
2023-09-08T00:50:46.367Z,15.99
2023-09-08T01:01:10.998Z,15.54
2023-09-08T01:11:35.488Z,17.32
2023-09-08T01:21:59.171Z,19.88
2023-09-08T01:32:23.617Z,20.70
2023-09-08T01:42:49.444Z,19.64
2023-09-08T01:53:13.253Z,17.28
2023-09-08T02:03:37.780Z,16.14
2023-09-08T02:14:02.020Z,15.48
2023-09-08T02:24:25.939Z,17.01
2023-09-08T02:34:51.239Z,19.12
2023-09-08T02:45:16.150Z,19.56
2023-09-08T02:55:40.245Z,18.49
2023-09-08T03:06:05.644Z,16.27
2023-09-08T03:16:30.416Z,15.14
2023-09-08T03:26:54.542Z,14.49
2023-09-08T03:37:19.075Z,14.16
2023-09-08T03:47:43.728Z,15.96
2023-09-08T03:58:07.944Z,18.60
2023-09-08T04:08:32.828Z,19.71
2023-09-08T04:18:57.840Z,18.61
2023-09-08T04:29:22.020Z,15.96
2023-09-08T04:39:46.528Z,14.64
2023-09-08T04:50:11.269Z,13.88
2023-09-08T05:00:35.048Z,15.44
2023-09-08T05:11:31.794Z,18.00
2023-09-08T05:22:19.445Z,19.27
2023-09-08T05:32:43.401Z,20.20
2023-09-08T05:43:08.140Z,18.91
2023-09-08T05:53:34.629Z,16.95
2023-09-08T06:03:59.053Z,16.03
2023-09-08T06:14:24.868Z,17.58
2023-09-08T06:24:51.641Z,20.18
2023-09-08T06:35:15.835Z,21.00
2023-09-08T06:45:43.306Z,21.28
2023-09-08T06:56:08.992Z,21.56
2023-09-08T07:06:33.052Z,21.96
2023-09-08T07:16:57.526Z,21.98
2023-09-08T07:27:22.081Z,22.20
2023-09-08T07:37:46.601Z,22.33
2023-09-08T07:48:11.661Z,22.63
2023-09-08T07:58:51.359Z,21.85
2023-09-08T08:09:27.190Z,19.99
2023-09-08T08:20:20.829Z,21.38
2023-09-08T08:30:47.402Z,23.71
2023-09-08T08:41:13.037Z,23.36
2023-09-08T08:51:38.209Z,21.82
2023-09-08T09:02:06.988Z,21.44
2023-09-08T09:12:31.415Z,23.08
2023-09-08T09:22:55.939Z,24.83
2023-09-08T09:33:20.995Z,24.13
2023-09-08T09:43:45.722Z,23.20
2023-09-08T09:54:10.950Z,23.05
2023-09-08T10:04:35.824Z,23.00
2023-09-08T10:15:00.592Z,23.14
2023-09-08T10:25:29.135Z,23.50
2023-09-08T10:35:54.809Z,23.85
2023-09-08T10:46:28.472Z,24.23
2023-09-08T10:56:57.771Z,24.57
2023-09-08T11:07:22.692Z,24.90
2023-09-08T11:17:46.895Z,25.17
2023-09-08T11:28:11.959Z,25.43
2023-09-08T11:38:36.554Z,25.74
2023-09-08T11:49:01.168Z,25.97
2023-09-08T11:59:27.433Z,26.21
2023-09-08T12:09:52.062Z,26.40
2023-09-08T12:20:16.967Z,26.78
2023-09-08T12:30:41.462Z,27.33
2023-09-08T12:41:06.231Z,27.51
2023-09-08T12:51:30.222Z,27.71
2023-09-08T13:01:54.501Z,28.04
2023-09-08T13:12:19.316Z,28.18
2023-09-08T13:22:43.980Z,28.10
2023-09-08T13:33:09.114Z,28.60
2023-09-08T13:43:33.884Z,28.98
2023-09-08T13:53:58.172Z,29.12
2023-09-08T14:04:25.326Z,29.61
2023-09-08T14:14:50.223Z,29.98
2023-09-08T14:25:14.648Z,30.25
2023-09-08T14:35:47.491Z,30.03
2023-09-08T14:46:12.217Z,29.49
2023-09-08T14:56:36.658Z,29.09
2023-09-08T15:07:01.046Z,28.68
2023-09-08T15:17:25.671Z,28.72
2023-09-08T15:27:49.509Z,28.90
2023-09-08T15:38:16.953Z,28.88
2023-09-08T15:48:41.304Z,28.95
2023-09-08T15:59:05.296Z,28.96
2023-09-08T16:09:30.166Z,28.81
2023-09-08T16:19:54.239Z,28.58
2023-09-08T16:30:18.661Z,28.20
2023-09-08T16:40:43.028Z,27.93
2023-09-08T16:51:07.446Z,27.83
2023-09-08T17:01:31.621Z,27.64
2023-09-08T17:11:55.969Z,27.45
2023-09-08T17:22:20.576Z,27.07
2023-09-08T17:32:44.341Z,26.52
2023-09-08T17:43:09.089Z,25.91
2023-09-08T17:53:37.155Z,25.36
2023-09-08T18:04:01.464Z,24.94
2023-09-08T18:14:26.094Z,24.63
2023-09-08T18:24:50.270Z,24.28
2023-09-08T18:35:14.415Z,23.98
2023-09-08T18:45:38.940Z,23.71
2023-09-08T18:56:05.266Z,23.40
2023-09-08T19:06:29.689Z,23.07
2023-09-08T19:16:53.869Z,22.74
2023-09-08T19:27:18.746Z,22.42
2023-09-08T19:37:42.961Z,22.11
2023-09-08T19:48:08.311Z,21.78
2023-09-08T19:58:32.926Z,21.50
2023-09-08T20:08:57.233Z,21.21
2023-09-08T20:19:25.328Z,20.96
2023-09-08T20:29:56.604Z,20.73
2023-09-08T20:40:20.614Z,22.37
2023-09-08T20:50:45.028Z,24.60
2023-09-08T21:01:10.633Z,24.05
2023-09-08T21:11:36.271Z,21.89
2023-09-08T21:22:01.126Z,20.69
2023-09-08T21:32:25.597Z,20.01
2023-09-08T21:42:49.407Z,21.36
2023-09-08T21:53:14.124Z,23.31
2023-09-08T22:03:38.491Z,24.25
2023-09-08T22:14:02.922Z,23.26
2023-09-08T22:24:27.270Z,20.96
2023-09-08T22:34:51.283Z,19.71
2023-09-08T22:45:15.233Z,18.90
2023-09-08T22:55:39.539Z,20.14
2023-09-08T23:06:03.900Z,21.82
2023-09-08T23:16:28.415Z,22.23
2023-09-08T23:26:52.574Z,22.44
2023-09-08T23:37:17.521Z,21.38
2023-09-08T23:47:41.796Z,19.36
2023-09-08T23:58:05.915Z,18.22
